Time;durP1;ratioP1;P1;durP2;ratioP2;P2;SDS_P1;SDS_P2;PMS_P1;PMS_P2;Temp;Humidity;BMP_temperature;BMP_pressure;BME280_temperature;BME280_humidity;BME280_pressure;Samples;Min_cycle;Max_cycle;Signal;HPM_P1;HPM_P2
2021/12/26 00:02:55;;;;;;;6.68;3.30;;;;;;;;;;5057633;28;20040;-73
2021/12/26 00:05:21;;;;;;;7.70;3.53;;;;;;;;;;5070215;28;20039;-74
2021/12/26 00:07:48;;;;;;;5.07;3.08;;;;;;;;;;5067643;28;20141;-74
2021/12/26 00:10:15;;;;;;;7.55;4.60;;;;;;;;;;5051354;28;20045;-74
2021/12/26 00:12:42;;;;;;;4.45;3.38;;;;;;;;;;5070408;28;20052;-74
2021/12/26 00:15:08;;;;;;;5.18;3.05;;;;;;;;;;5065587;28;20033;-74
2021/12/26 00:17:34;;;;;;;7.10;3.63;;;;;;;;;;5066621;28;20488;-74
2021/12/26 00:20:03;;;;;;;6.78;3.72;;;;;;;;;;5070288;28;20044;-74
2021/12/26 00:22:29;;;;;;;6.65;3.22;;;;;;;;;;5064911;28;20059;-73
2021/12/26 00:24:57;;;;;;;4.03;3.17;;;;;;;;;;5068364;28;20037;-74
2021/12/26 00:27:23;;;;;;;10.45;3.92;;;;;;;;;;5070801;28;20083;-74
2021/12/26 00:29:49;;;;;;;5.15;3.70;;;;;;;;;;5062978;28;20044;-74
2021/12/26 00:32:16;;;;;;;3.20;2.13;;;;;;;;;;5066651;28;20037;-74
2021/12/26 00:34:42;;;;;;;4.63;2.88;;;;;;;;;;5097480;28;20050;-74
2021/12/26 00:37:08;;;;;;;5.65;3.30;;;;;;;;;;5091634;28;20585;-73
2021/12/26 00:39:35;;;;;;;4.85;2.58;;;;;;;;;;5068261;28;20047;-74
2021/12/26 00:42:01;;;;;;;5.53;3.10;;;;;;;;;;5067047;28;20036;-74
2021/12/26 00:44:28;;;;;;;6.68;2.58;;;;;;;;;;5068547;28;20040;-74
2021/12/26 00:46:54;;;;;;;7.15;2.80;;;;;;;;;;5070135;28;20060;-73
2021/12/26 00:49:21;;;;;;;4.75;2.70;;;;;;;;;;5073092;28;20102;-73
2021/12/26 00:51:48;;;;;;;5.15;2.50;;;;;;;;;;5050809;28;20067;-74
2021/12/26 00:54:14;;;;;;;6.25;3.42;;;;;;;;;;5071335;28;20391;-73
2021/12/26 00:56:40;;;;;;;9.48;2.45;;;;;;;;;;5053897;28;20041;-74
2021/12/26 00:59:07;;;;;;;9.90;2.75;;;;;;;;;;5067576;28;20036;-73
2021/12/26 01:01:33;;;;;;;3.60;2.08;;;;;;;;;;5072053;28;20049;-74
2021/12/26 01:04:00;;;;;;;5.03;2.33;;;;;;;;;;5087042;28;20055;-73
2021/12/26 01:06:27;;;;;;;3.83;2.10;;;;;;;;;;5072070;28;20028;-74
2021/12/26 01:08:54;;;;;;;4.07;2.55;;;;;;;;;;5069747;28;20036;-73
2021/12/26 01:11:34;;;;;;;3.10;1.60;;;;;;;;;;5066568;28;20055;-74
2021/12/26 01:14:00;;;;;;;4.07;1.63;;;;;;;;;;5049761;28;20402;-73
2021/12/26 01:16:28;;;;;;;9.13;3.08;;;;;;;;;;5056201;28;20051;-73
2021/12/26 01:19:00;;;;;;;3.22;2.05;;;;;;;;;;5069027;28;20474;-74
2021/12/26 01:21:26;;;;;;;4.43;2.38;;;;;;;;;;5062771;28;20048;-74
2021/12/26 01:23:54;;;;;;;4.57;2.35;;;;;;;;;;5067223;28;20512;-74
2021/12/26 01:26:21;;;;;;;3.78;2.10;;;;;;;;;;5070486;28;20106;-74
2021/12/26 01:28:48;;;;;;;5.75;2.20;;;;;;;;;;5070822;28;20044;-74
2021/12/26 01:31:18;;;;;;;4.65;1.95;;;;;;;;;;5073213;28;20137;-74
2021/12/26 01:33:45;;;;;;;3.75;2.28;;;;;;;;;;5069492;28;20446;-74
2021/12/26 01:36:11;;;;;;;2.38;1.80;;;;;;;;;;5056284;28;20406;-73
2021/12/26 01:38:38;;;;;;;6.60;1.92;;;;;;;;;;5051869;28;20049;-74
2021/12/26 01:41:10;;;;;;;3.88;1.92;;;;;;;;;;5071612;28;20482;-74
2021/12/26 01:43:41;;;;;;;4.07;2.05;;;;;;;;;;5081079;28;20036;-74
2021/12/26 01:46:07;;;;;;;4.80;1.83;;;;;;;;;;5101891;28;20139;-74
2021/12/26 01:48:34;;;;;;;2.75;1.90;;;;;;;;;;5070705;28;20502;-74
2021/12/26 01:51:00;;;;;;;2.47;1.67;;;;;;;;;;5070912;28;20379;-74
2021/12/26 01:53:36;;;;;;;3.40;1.88;;;;;;;;;;5068181;28;20044;-73
2021/12/26 01:56:02;;;;;;;4.22;2.20;;;;;;;;;;5060527;28;20032;-74
2021/12/26 01:58:29;;;;;;;3.28;1.35;;;;;;;;;;5069251;28;20036;-74
2021/12/26 02:00:58;;;;;;;3.83;1.90;;;;;;;;;;5068871;28;20040;-74
2021/12/26 02:03:24;;;;;;;7.07;2.85;;;;;;;;;;5101099;28;20102;-74
2021/12/26 02:05:50;;;;;;;2.75;1.50;;;;;;;;;;5068963;28;20048;-75
2021/12/26 02:08:18;;;;;;;3.00;1.65;;;;;;;;;;5070524;28;20033;-74
2021/12/26 02:10:44;;;;;;;3.70;1.45;;;;;;;;;;5069371;28;20040;-74
2021/12/26 02:13:10;;;;;;;2.25;1.42;;;;;;;;;;5074996;28;20050;-74
2021/12/26 02:15:37;;;;;;;5.00;2.10;;;;;;;;;;5068710;28;20036;-74
2021/12/26 02:18:05;;;;;;;2.22;1.48;;;;;;;;;;5070034;28;20041;-74
2021/12/26 02:20:48;;;;;;;5.82;2.00;;;;;;;;;;5072353;28;20044;-74
2021/12/26 02:23:23;;;;;;;2.70;1.73;;;;;;;;;;5067097;28;20044;-74
2021/12/26 02:28:34;;;;;;;5.72;2.70;;;;;;;;;;5071313;28;20056;-74
2021/12/26 02:31:00;;;;;;;2.80;1.60;;;;;;;;;;5070154;28;20501;-74
2021/12/26 02:33:27;;;;;;;4.50;2.05;;;;;;;;;;5070527;28;20133;-74
2021/12/26 02:35:53;;;;;;;1.83;1.45;;;;;;;;;;5066627;28;20082;-74
2021/12/26 02:38:19;;;;;;;3.28;2.17;;;;;;;;;;5097840;28;20085;-74
2021/12/26 02:40:47;;;;;;;3.65;2.15;;;;;;;;;;5068846;28;20052;-74
2021/12/26 02:43:15;;;;;;;6.70;2.33;;;;;;;;;;5069549;28;20040;-74
2021/12/26 02:45:42;;;;;;;4.38;1.88;;;;;;;;;;5067538;28;20051;-74
2021/12/26 02:48:10;;;;;;;5.00;2.47;;;;;;;;;;5082983;28;20052;-74
2021/12/26 02:50:38;;;;;;;5.05;1.83;;;;;;;;;;5071438;28;20052;-74
2021/12/26 02:53:05;;;;;;;3.30;1.60;;;;;;;;;;5049677;28;20067;-74
2021/12/26 02:55:31;;;;;;;3.13;1.90;;;;;;;;;;5104741;27;20478;-73
2021/12/26 02:58:02;;;;;;;3.67;1.83;;;;;;;;;;5071494;28;20406;-74
2021/12/26 03:00:29;;;;;;;3.75;1.70;;;;;;;;;;5059917;28;20033;-74
2021/12/26 03:02:57;;;;;;;4.97;1.88;;;;;;;;;;5069527;28;20040;-74
2021/12/26 03:05:25;;;;;;;5.53;2.65;;;;;;;;;;5099651;28;20068;-74
2021/12/26 03:07:51;;;;;;;4.68;2.03;;;;;;;;;;5066090;28;20040;-74
2021/12/26 03:10:24;;;;;;;2.63;1.92;;;;;;;;;;5066635;28;20226;-74
2021/12/26 03:12:51;;;;;;;5.78;1.95;;;;;;;;;;5068765;28;20410;-74
2021/12/26 03:15:17;;;;;;;4.68;2.10;;;;;;;;;;5075667;28;20033;-74
2021/12/26 03:17:44;;;;;;;2.90;1.77;;;;;;;;;;5067942;28;20051;-74
2021/12/26 03:20:11;;;;;;;3.97;1.88;;;;;;;;;;5068537;28;20143;-74
2021/12/26 03:22:38;;;;;;;4.22;2.38;;;;;;;;;;5064152;28;20503;-74
2021/12/26 03:25:05;;;;;;;6.50;1.75;;;;;;;;;;5071569;28;20044;-74
2021/12/26 03:27:32;;;;;;;11.27;4.43;;;;;;;;;;5064093;28;20106;-74
2021/12/26 03:29:58;;;;;;;3.15;1.92;;;;;;;;;;5071450;28;20032;-74
2021/12/26 03:32:24;;;;;;;2.40;1.48;;;;;;;;;;5067077;28;20494;-74
2021/12/26 03:34:51;;;;;;;4.32;2.20;;;;;;;;;;5068641;28;20033;-74
2021/12/26 03:37:17;;;;;;;5.47;1.67;;;;;;;;;;5084292;28;20047;-74
2021/12/26 03:39:44;;;;;;;3.05;1.73;;;;;;;;;;5075740;28;20071;-74
2021/12/26 03:42:10;;;;;;;3.22;1.77;;;;;;;;;;5067293;28;20089;-74
2021/12/26 03:44:37;;;;;;;3.55;1.50;;;;;;;;;;5069644;28;20060;-74
2021/12/26 03:47:04;;;;;;;4.15;1.70;;;;;;;;;;5065749;28;20045;-74
2021/12/26 03:49:30;;;;;;;3.00;1.75;;;;;;;;;;5067877;28;20044;-74
2021/12/26 03:51:56;;;;;;;3.95;1.52;;;;;;;;;;5066312;28;20092;-74
2021/12/26 03:54:22;;;;;;;3.05;1.80;;;;;;;;;;5065298;28;20047;-74
2021/12/26 03:56:49;;;;;;;3.53;1.92;;;;;;;;;;5067389;28;20509;-74
2021/12/26 03:59:15;;;;;;;4.10;1.63;;;;;;;;;;5047663;28;20048;-74
2021/12/26 04:01:41;;;;;;;3.28;1.70;;;;;;;;;;5064565;28;20052;-74
2021/12/26 04:04:07;;;;;;;2.67;1.33;;;;;;;;;;5062511;28;20043;-74
2021/12/26 04:06:33;;;;;;;2.92;1.52;;;;;;;;;;5067699;28;20556;-74
2021/12/26 04:08:59;;;;;;;6.80;2.05;;;;;;;;;;5095973;28;20306;-73
2021/12/26 04:11:26;;;;;;;1.27;1.02;;;;;;;;;;5067148;28;20040;-73
2021/12/26 04:13:52;;;;;;;3.20;1.42;;;;;;;;;;5068986;28;20401;-73
2021/12/26 04:16:18;;;;;;;2.33;1.13;;;;;;;;;;5066481;28;20115;-73
2021/12/26 04:18:48;;;;;;;3.10;1.63;;;;;;;;;;5064079;28;20036;-73
2021/12/26 04:21:14;;;;;;;4.93;2.03;;;;;;;;;;5061848;28;20391;-73
2021/12/26 04:23:40;;;;;;;2.95;1.50;;;;;;;;;;5096958;28;20052;-73
2021/12/26 04:26:06;;;;;;;2.67;1.50;;;;;;;;;;5072128;28;20132;-73
2021/12/26 04:28:33;;;;;;;2.85;1.88;;;;;;;;;;5072739;28;20401;-73
2021/12/26 04:30:59;;;;;;;2.92;1.50;;;;;;;;;;5070049;28;20036;-73
2021/12/26 04:33:25;;;;;;;1.90;1.40;;;;;;;;;;5072728;28;20071;-74
2021/12/26 04:35:51;;;;;;;3.28;1.75;;;;;;;;;;5072852;28;20545;-74
2021/12/26 04:38:17;;;;;;;2.80;1.85;;;;;;;;;;5069221;28;20046;-74
2021/12/26 04:40:44;;;;;;;2.55;1.88;;;;;;;;;;5072737;28;20051;-74
2021/12/26 04:43:10;;;;;;;3.88;1.60;;;;;;;;;;5069929;28;20498;-74
2021/12/26 04:45:36;;;;;;;3.78;1.73;;;;;;;;;;5068768;28;20301;-74
2021/12/26 04:48:03;;;;;;;7.20;1.27;;;;;;;;;;5072917;28;20075;-73
2021/12/26 04:50:29;;;;;;;3.35;1.60;;;;;;;;;;5069641;28;20079;-73
2021/12/26 04:52:56;;;;;;;3.03;1.50;;;;;;;;;;5067420;28;20041;-74
2021/12/26 04:55:24;;;;;;;3.35;1.63;;;;;;;;;;5073882;28;20089;-74
2021/12/26 04:57:50;;;;;;;3.67;2.38;;;;;;;;;;5068334;28;20036;-74
2021/12/26 05:00:18;;;;;;;4.78;1.70;;;;;;;;;;5071779;28;20059;-74
2021/12/26 05:02:46;;;;;;;4.15;1.33;;;;;;;;;;5071176;28;20525;-73
2021/12/26 05:05:12;;;;;;;3.67;1.60;;;;;;;;;;5068570;28;20048;-74
2021/12/26 05:07:39;;;;;;;2.25;1.30;;;;;;;;;;5071150;28;20512;-74
2021/12/26 05:10:06;;;;;;;2.78;1.63;;;;;;;;;;5072630;28;20045;-74
2021/12/26 05:12:33;;;;;;;3.78;1.30;;;;;;;;;;5070025;28;20040;-74
2021/12/26 05:15:01;;;;;;;11.82;2.17;;;;;;;;;;5080797;28;20037;-74
2021/12/26 05:17:30;;;;;;;2.90;1.80;;;;;;;;;;5071236;28;20040;-73
2021/12/26 05:19:56;;;;;;;12.10;1.88;;;;;;;;;;5068943;28;20089;-74
2021/12/26 05:22:22;;;;;;;3.58;2.35;;;;;;;;;;5072140;28;20072;-74
2021/12/26 05:24:48;;;;;;;4.20;1.70;;;;;;;;;;5071510;28;20036;-74
2021/12/26 05:27:15;;;;;;;3.30;1.90;;;;;;;;;;5070085;28;20033;-74
2021/12/26 05:29:41;;;;;;;1.98;1.42;;;;;;;;;;5073159;28;20078;-74
2021/12/26 05:32:08;;;;;;;3.25;1.55;;;;;;;;;;5069158;28;20040;-74
2021/12/26 05:34:34;;;;;;;4.35;2.00;;;;;;;;;;5070201;28;20115;-74
2021/12/26 05:37:00;;;;;;;2.85;1.40;;;;;;;;;;5071081;28;20457;-74
2021/12/26 05:39:26;;;;;;;2.65;1.33;;;;;;;;;;5068755;28;20037;-74
2021/12/26 05:41:52;;;;;;;2.50;1.63;;;;;;;;;;5083956;28;20409;-74
2021/12/26 05:44:19;;;;;;;4.18;2.30;;;;;;;;;;5071405;28;20453;-73
2021/12/26 05:46:45;;;;;;;3.10;1.63;;;;;;;;;;5097910;28;20059;-74
2021/12/26 05:49:11;;;;;;;2.40;1.50;;;;;;;;;;5068720;28;20041;-74
2021/12/26 05:51:39;;;;;;;4.15;1.83;;;;;;;;;;5072504;28;20131;-74
2021/12/26 05:54:06;;;;;;;2.92;2.10;;;;;;;;;;5067824;28;20094;-74
2021/12/26 05:56:32;;;;;;;3.10;2.08;;;;;;;;;;5069796;28;20041;-74
2021/12/26 05:58:58;;;;;;;2.80;1.77;;;;;;;;;;5072114;28;20037;-72
2021/12/26 06:01:24;;;;;;;3.17;1.88;;;;;;;;;;5099807;28;20045;-73
2021/12/26 06:03:50;;;;;;;2.03;1.40;;;;;;;;;;5071871;28;20041;-74
2021/12/26 06:06:17;;;;;;;3.08;1.88;;;;;;;;;;5066763;28;20051;-74
2021/12/26 06:08:43;;;;;;;3.03;1.90;;;;;;;;;;5100361;28;20043;-74
2021/12/26 06:11:09;;;;;;;4.80;1.75;;;;;;;;;;5070008;28;20040;-74
2021/12/26 06:13:35;;;;;;;3.22;1.73;;;;;;;;;;5069125;28;20047;-73
2021/12/26 06:16:01;;;;;;;2.88;1.83;;;;;;;;;;5068418;28;20045;-74
2021/12/26 06:18:28;;;;;;;4.22;1.60;;;;;;;;;;5070493;28;20037;-73
2021/12/26 06:20:54;;;;;;;3.03;1.90;;;;;;;;;;5067837;28;20033;-74
2021/12/26 06:23:20;;;;;;;4.75;2.20;;;;;;;;;;5067928;28;20041;-74
2021/12/26 06:25:46;;;;;;;4.28;1.77;;;;;;;;;;5066631;28;20051;-74
2021/12/26 06:28:12;;;;;;;3.17;1.75;;;;;;;;;;5068088;28;20371;-74
2021/12/26 06:30:38;;;;;;;4.13;2.25;;;;;;;;;;5074338;28;20037;-74
2021/12/26 06:33:05;;;;;;;5.18;2.00;;;;;;;;;;5070388;28;20567;-75
2021/12/26 06:35:31;;;;;;;4.10;1.88;;;;;;;;;;5067432;28;20048;-74
2021/12/26 06:37:57;;;;;;;3.70;1.45;;;;;;;;;;5068949;28;20048;-74
2021/12/26 06:40:23;;;;;;;1.83;1.33;;;;;;;;;;5069296;28;20067;-74
2021/12/26 06:42:50;;;;;;;4.75;2.22;;;;;;;;;;5069167;28;20387;-74
2021/12/26 06:45:18;;;;;;;4.57;2.10;;;;;;;;;;5052367;28;20517;-75
2021/12/26 06:47:49;;;;;;;5.85;1.90;;;;;;;;;;5068631;28;20060;-74
2021/12/26 06:50:16;;;;;;;2.38;1.75;;;;;;;;;;5066914;28;20071;-74
2021/12/26 06:52:42;;;;;;;2.50;2.03;;;;;;;;;;5065847;28;20036;-74
2021/12/26 06:55:10;;;;;;;4.35;2.10;;;;;;;;;;5065932;28;20040;-74
2021/12/26 06:57:37;;;;;;;4.70;2.28;;;;;;;;;;5088625;28;20040;-74
2021/12/26 07:00:11;;;;;;;2.83;1.50;;;;;;;;;;5061616;28;20045;-74
2021/12/26 07:02:37;;;;;;;3.80;1.70;;;;;;;;;;5067758;28;20048;-74
2021/12/26 07:05:11;;;;;;;4.03;2.22;;;;;;;;;;5116861;27;1375166;-74
2021/12/26 07:07:38;;;;;;;5.90;2.08;;;;;;;;;;5123472;27;20053;-74
2021/12/26 07:10:04;;;;;;;2.42;1.58;;;;;;;;;;5122201;27;20552;-74
2021/12/26 07:12:30;;;;;;;3.80;2.13;;;;;;;;;;5126856;27;20109;-75
2021/12/26 07:14:57;;;;;;;3.88;2.08;;;;;;;;;;5102977;27;20533;-81
2021/12/26 07:17:23;;;;;;;2.97;1.98;;;;;;;;;;5121950;27;20035;-81
2021/12/26 07:19:49;;;;;;;2.60;1.70;;;;;;;;;;5116307;27;20158;-80
2021/12/26 07:22:15;;;;;;;3.53;1.60;;;;;;;;;;5127830;27;20089;-80
2021/12/26 07:24:43;;;;;;;3.03;2.03;;;;;;;;;;5139206;27;20046;-80
2021/12/26 07:27:16;;;;;;;2.88;1.77;;;;;;;;;;5127254;27;20297;-81
2021/12/26 07:29:43;;;;;;;3.95;2.20;;;;;;;;;;5127786;27;20124;-81
2021/12/26 07:32:09;;;;;;;4.57;2.30;;;;;;;;;;5107484;27;20043;-81
2021/12/26 07:34:35;;;;;;;4.85;2.20;;;;;;;;;;5107989;27;20046;-81
2021/12/26 07:37:02;;;;;;;2.78;1.98;;;;;;;;;;5103679;27;20062;-81
2021/12/26 07:39:28;;;;;;;6.15;2.75;;;;;;;;;;5118978;27;20427;-79
2021/12/26 07:41:54;;;;;;;4.68;2.63;;;;;;;;;;5118716;27;20140;-78
2021/12/26 07:44:20;;;;;;;5.50;2.40;;;;;;;;;;5118915;27;20047;-79
2021/12/26 07:46:47;;;;;;;4.53;2.20;;;;;;;;;;5119796;27;20130;-80
2021/12/26 07:49:13;;;;;;;5.10;2.13;;;;;;;;;;5102446;27;20097;-79
2021/12/26 07:51:39;;;;;;;6.38;2.50;;;;;;;;;;5102093;27;20047;-79
2021/12/26 07:54:05;;;;;;;6.03;2.95;;;;;;;;;;5086126;27;20059;-74
2021/12/26 07:56:32;;;;;;;4.93;2.70;;;;;;;;;;5116838;27;20051;-73
2021/12/26 07:58:58;;;;;;;5.78;3.10;;;;;;;;;;5112456;27;20043;-75
2021/12/26 08:01:27;;;;;;;2.88;2.35;;;;;;;;;;5085996;27;21073;-75
2021/12/26 08:03:54;;;;;;;9.73;2.90;;;;;;;;;;5118053;27;20444;-73
2021/12/26 08:06:20;;;;;;;4.35;2.17;;;;;;;;;;5113675;27;20061;-73
2021/12/26 08:08:47;;;;;;;3.03;2.58;;;;;;;;;;5117418;27;20612;-74
2021/12/26 08:11:13;;;;;;;4.85;2.58;;;;;;;;;;5120656;27;20039;-74
2021/12/26 08:13:39;;;;;;;5.20;2.47;;;;;;;;;;5102781;27;20126;-75
2021/12/26 08:16:06;;;;;;;4.43;2.47;;;;;;;;;;5093399;27;20039;-73
2021/12/26 08:18:32;;;;;;;5.47;2.05;;;;;;;;;;5105723;27;20065;-73
2021/12/26 08:20:58;;;;;;;3.25;2.35;;;;;;;;;;5091278;27;20066;-78
2021/12/26 08:23:24;;;;;;;3.63;2.53;;;;;;;;;;5104763;27;20044;-78
2021/12/26 08:25:50;;;;;;;4.97;2.65;;;;;;;;;;5106114;27;20597;-77
2021/12/26 08:28:17;;;;;;;4.15;2.97;;;;;;;;;;5110385;27;20487;-77
2021/12/26 08:30:43;;;;;;;4.28;2.42;;;;;;;;;;5090561;27;20062;-77
2021/12/26 08:33:10;;;;;;;3.83;2.78;;;;;;;;;;5071203;27;20042;-78
2021/12/26 08:35:37;;;;;;;6.82;2.90;;;;;;;;;;5100776;27;20160;-78
2021/12/26 08:38:04;;;;;;;4.97;2.53;;;;;;;;;;5091104;27;20038;-78
2021/12/26 08:40:31;;;;;;;6.82;2.65;;;;;;;;;;5091447;27;20070;-78
2021/12/26 08:42:57;;;;;;;3.75;2.67;;;;;;;;;;5106195;27;20155;-73
2021/12/26 08:45:25;;;;;;;3.58;2.30;;;;;;;;;;5101980;27;20027;-73
2021/12/26 08:47:51;;;;;;;3.63;2.60;;;;;;;;;;5093001;27;20153;-77
2021/12/26 08:50:18;;;;;;;4.82;2.60;;;;;;;;;;5076439;27;20039;-73
2021/12/26 08:52:44;;;;;;;5.00;3.08;;;;;;;;;;5089179;27;20156;-73
2021/12/26 08:55:10;;;;;;;3.65;2.45;;;;;;;;;;5112552;27;20050;-77
2021/12/26 08:57:40;;;;;;;8.68;2.92;;;;;;;;;;5102546;28;20125;-79
2021/12/26 09:00:07;;;;;;;5.57;2.55;;;;;;;;;;5100433;27;20050;-77
2021/12/26 09:02:33;;;;;;;4.10;2.58;;;;;;;;;;5068472;27;20043;-78
2021/12/26 09:04:59;;;;;;;4.20;2.50;;;;;;;;;;5067618;27;20448;-78
2021/12/26 09:07:25;;;;;;;6.18;2.97;;;;;;;;;;5116469;27;20518;-84
2021/12/26 09:09:51;;;;;;;5.15;3.20;;;;;;;;;;5093789;27;20043;-85
2021/12/26 09:12:17;;;;;;;6.38;2.78;;;;;;;;;;5095770;27;20039;-78
2021/12/26 09:14:44;;;;;;;4.57;2.90;;;;;;;;;;5093684;27;20074;-80
2021/12/26 09:17:10;;;;;;;6.15;3.00;;;;;;;;;;5108440;27;20043;-81
2021/12/26 09:19:37;;;;;;;3.92;2.17;;;;;;;;;;5069527;27;20456;-80
2021/12/26 09:22:05;;;;;;;3.72;2.40;;;;;;;;;;5091739;27;20758;-80
2021/12/26 09:24:31;;;;;;;5.10;2.85;;;;;;;;;;5102656;27;20497;-73
2021/12/26 09:26:57;;;;;;;6.63;3.20;;;;;;;;;;5078430;27;20036;-73
2021/12/26 09:29:23;;;;;;;7.00;3.00;;;;;;;;;;5089887;28;20050;-74
2021/12/26 09:31:50;;;;;;;3.05;2.75;;;;;;;;;;5102011;27;20505;-73
2021/12/26 09:34:16;;;;;;;7.90;2.40;;;;;;;;;;5101208;27;20070;-73
2021/12/26 09:36:43;;;;;;;5.15;2.85;;;;;;;;;;5088816;27;20120;-73
2021/12/26 09:39:09;;;;;;;3.70;2.58;;;;;;;;;;5089481;27;20034;-73
2021/12/26 09:41:35;;;;;;;7.57;3.67;;;;;;;;;;5104684;27;20087;-78
2021/12/26 09:44:01;;;;;;;3.53;2.53;;;;;;;;;;5105124;27;20369;-74
2021/12/26 09:46:28;;;;;;;3.67;2.30;;;;;;;;;;5062390;27;20031;-74
2021/12/26 09:48:54;;;;;;;4.47;2.70;;;;;;;;;;5083747;27;20516;-73
2021/12/26 09:51:20;;;;;;;8.45;3.30;;;;;;;;;;5064059;27;20046;-73
2021/12/26 09:53:47;;;;;;;4.95;2.40;;;;;;;;;;5093846;27;20039;-78
2021/12/26 09:56:14;;;;;;;6.25;2.92;;;;;;;;;;5112241;27;20053;-78
2021/12/26 09:58:56;;;;;;;5.72;3.03;;;;;;;;;;5091393;27;20053;-78
2021/12/26 10:01:36;;;;;;;4.10;2.28;;;;;;;;;;5107737;27;20047;-81
2021/12/26 10:04:20;;;;;;;11.38;3.63;;;;;;;;;;5101313;27;20059;-73
2021/12/26 10:06:58;;;;;;;2.95;2.28;;;;;;;;;;5086200;27;20435;-72
2021/12/26 10:09:24;;;;;;;4.70;2.75;;;;;;;;;;5066114;27;20212;-74
2021/12/26 10:11:52;;;;;;;5.15;2.55;;;;;;;;;;5081000;28;20443;-74
2021/12/26 10:14:22;;;;;;;5.13;3.13;;;;;;;;;;5087256;27;20118;-82
2021/12/26 10:16:51;;;;;;;4.55;3.00;;;;;;;;;;5083048;27;20042;-82
2021/12/26 10:19:17;;;;;;;4.15;2.65;;;;;;;;;;5101050;27;20047;-74
2021/12/26 10:21:44;;;;;;;5.18;2.40;;;;;;;;;;5065773;27;20044;-74
2021/12/26 10:24:17;;;;;;;4.85;2.60;;;;;;;;;;5099478;27;20047;-74
2021/12/26 10:26:44;;;;;;;5.07;2.88;;;;;;;;;;5099442;27;20360;-74
2021/12/26 10:29:21;;;;;;;5.25;3.17;;;;;;;;;;5102722;27;20111;-83
2021/12/26 10:31:48;;;;;;;4.15;3.33;;;;;;;;;;5091026;27;20047;-82
2021/12/26 10:34:15;;;;;;;4.00;3.00;;;;;;;;;;5091458;27;20143;-83
2021/12/26 10:36:46;;;;;;;4.80;2.88;;;;;;;;;;5110872;27;20062;-84
2021/12/26 10:39:14;;;;;;;4.20;3.08;;;;;;;;;;5087777;27;20043;-84
2021/12/26 10:42:01;;;;;;;7.13;3.25;;;;;;;;;;5115242;27;20046;-84
2021/12/26 10:44:31;;;;;;;4.38;3.65;;;;;;;;;;5092878;27;20123;-84
2021/12/26 10:46:59;;;;;;;5.68;2.80;;;;;;;;;;5093058;28;20056;-74
2021/12/26 10:49:26;;;;;;;4.70;3.20;;;;;;;;;;5103906;27;20449;-74
2021/12/26 10:51:52;;;;;;;2.97;2.45;;;;;;;;;;5102307;28;20064;-74
2021/12/26 10:54:20;;;;;;;4.28;2.65;;;;;;;;;;5103256;28;20366;-74
2021/12/26 10:57:03;;;;;;;4.80;2.70;;;;;;;;;;5086342;27;20127;-74
2021/12/26 10:59:29;;;;;;;;;;;;;;;;;;5104077;28;20388;-73
2021/12/26 11:01:56;;;;;;;6.93;3.50;;;;;;;;;;5107310;28;20279;-74
2021/12/26 11:04:26;;;;;;;4.55;3.20;;;;;;;;;;5079942;28;20043;-74
2021/12/26 11:06:59;;;;;;;6.15;3.38;;;;;;;;;;5089061;27;20039;-75
2021/12/26 11:09:26;;;;;;;4.43;3.05;;;;;;;;;;5091441;28;20039;-75
2021/12/26 11:12:03;;;;;;;7.15;3.33;;;;;;;;;;5084907;27;20031;-75
2021/12/26 11:14:30;;;;;;;4.68;3.17;;;;;;;;;;5101611;28;20046;-75
2021/12/26 11:16:56;;;;;;;5.25;3.10;;;;;;;;;;5085230;27;20039;-75
2021/12/26 11:19:42;;;;;;;5.95;3.92;;;;;;;;;;5088011;28;20046;-75
2021/12/26 11:22:10;;;;;;;5.05;3.22;;;;;;;;;;5103261;28;20051;-74
2021/12/26 11:24:36;;;;;;;7.75;3.50;;;;;;;;;;5102678;28;20069;-75
2021/12/26 11:27:02;;;;;;;5.03;3.28;;;;;;;;;;5099737;28;20745;-75
2021/12/26 11:29:29;;;;;;;6.88;3.90;;;;;;;;;;5108245;27;20095;-87
2021/12/26 11:31:56;;;;;;;4.57;2.92;;;;;;;;;;5100010;28;20074;-75
2021/12/26 11:34:22;;;;;;;6.78;3.75;;;;;;;;;;5105699;28;20039;-79
2021/12/26 11:36:51;;;;;;;4.25;3.10;;;;;;;;;;5056231;27;20054;-75
2021/12/26 11:39:18;;;;;;;7.20;3.47;;;;;;;;;;5088153;28;20042;-75
2021/12/26 11:41:47;;;;;;;5.95;2.97;;;;;;;;;;5097753;27;20107;-74
2021/12/26 11:44:18;;;;;;;4.97;3.30;;;;;;;;;;5088312;27;20047;-75
2021/12/26 11:47:05;;;;;;;5.10;3.33;;;;;;;;;;5068397;27;20031;-74
2021/12/26 11:49:51;;;;;;;6.35;3.72;;;;;;;;;;5100814;28;20054;-75
2021/12/26 11:52:35;;;;;;;5.43;3.55;;;;;;;;;;5108856;27;20043;-75
2021/12/26 11:55:05;;;;;;;6.00;3.97;;;;;;;;;;5072191;27;20061;-75
2021/12/26 11:57:31;;;;;;;5.93;3.35;;;;;;;;;;5108196;27;20374;-75
2021/12/26 12:00:11;;;;;;;5.80;3.42;;;11.20;47.80;;;;;;5108165;27;20131;-75
2021/12/26 12:03:00;;;;;;;4.38;3.05;;;7.70;58.40;;;;;;5105237;27;20058;-75
2021/12/26 12:05:37;;;;;;;5.20;3.70;;;;;;;;;;5104067;27;20112;-75
2021/12/26 12:08:03;;;;;;;6.28;3.17;;;;;;;;;;5090253;27;20061;-75
2021/12/26 12:10:56;;;;;;;6.30;3.35;;;;;;;;;;5106929;27;20051;-79
2021/12/26 12:13:22;;;;;;;5.85;3.55;;;;;;;;;;5095396;27;20758;-86
2021/12/26 12:15:51;;;;;;;5.38;3.75;;;;;;;;;;5110674;27;20091;-86
2021/12/26 12:18:17;;;;;;;6.22;3.85;;;;;;;;;;5108417;27;20047;-84
2021/12/26 12:20:44;;;;;;;4.20;3.25;;;;;;;;;;5093435;27;20515;-83
2021/12/26 12:23:16;;;;;;;6.45;3.97;;;;;;;;;;5077873;27;20035;-84
2021/12/26 12:25:49;;;;;;;5.97;3.58;;;;;;;;;;5094394;28;20051;-81
2021/12/26 12:28:26;;;;;;;4.40;3.33;;;;;;;;;;5078641;27;20131;-83
2021/12/26 12:30:59;;;;;;;4.78;3.40;;;;;;;;;;5096361;27;20521;-85
2021/12/26 12:33:28;;;;;;;5.82;3.25;;;;;;;;;;5076650;27;20450;-84
2021/12/26 12:36:01;;;;;;;5.10;3.45;;;;;;;;;;5076078;27;20033;-83
2021/12/26 12:38:34;;;;;;;5.03;3.75;;;;;;;;;;5102322;27;20171;-84
2021/12/26 12:41:02;;;;;;;6.75;3.88;;;;;;;;;;5079655;27;20039;-85
2021/12/26 12:43:42;;;;;;;7.25;3.90;;;;;;;;;;5078841;27;20065;-85
2021/12/26 12:46:13;;;;;;;5.20;2.83;;;;;;;;;;5083960;27;20027;-86
2021/12/26 12:49:05;;;;;;;3.83;2.85;;;;;;;;;;5075828;27;20106;-86
2021/12/26 12:51:45;;;;;;;5.88;3.65;;;;;;;;;;5075139;27;20043;-85
2021/12/26 12:54:23;;;;;;;5.07;3.38;;;;;;;;;;5092600;27;20099;-85
2021/12/26 12:56:52;;;;;;;5.20;3.78;;;;;;;;;;5093262;27;20149;-84
2021/12/26 12:59:20;;;;;;;4.90;3.40;;;;;;;;;;5094491;27;20039;-84
2021/12/26 13:01:48;;;;;;;7.40;3.60;;;;;;;;;;5110886;27;20046;-83
2021/12/26 13:04:15;;;;;;;5.20;3.40;;;;;;;;;;5100199;27;20104;-84
2021/12/26 13:06:58;;;;;;;4.72;3.00;;;;;;;;;;5112817;27;20039;-85
2021/12/26 13:09:25;;;;;;;4.75;2.70;;;;;;;;;;5112759;27;20031;-85
2021/12/26 13:11:51;;;;;;;5.63;2.97;;;;;;;;;;5089912;27;20142;-75
2021/12/26 13:14:36;;;;;;;5.47;3.45;;;;;;;;;;5106438;27;20043;-75
2021/12/26 13:17:03;;;;;;;6.43;3.65;;;;;;;;;;5084665;27;20051;-75
2021/12/26 13:19:30;;;;;;;6.10;3.60;;;;;;;;;;5104267;27;20391;-75
2021/12/26 13:21:57;;;;;;;6.28;3.60;;;;;;;;;;5098548;27;20076;-75
2021/12/26 13:24:33;;;;;;;5.00;3.47;;;;;;;;;;5070887;27;20051;-75
2021/12/26 13:27:01;;;;;;;7.07;3.38;;;;;;;;;;5101453;27;20039;-76
2021/12/26 13:29:28;;;;;;;4.43;3.17;;;;;;;;;;5091201;27;20079;-75
2021/12/26 13:31:54;;;;;;;6.43;3.42;;;;;;;;;;5092818;27;20031;-75
2021/12/26 13:34:20;;;;;;;4.38;2.90;;;;;;;;;;5088874;27;20149;-75
2021/12/26 13:36:46;;;;;;;4.63;3.97;;;;;;;;;;5106666;27;20375;-75
2021/12/26 13:39:32;;;;;;;3.95;2.83;;;;;;;;;;5073109;27;20222;-76
2021/12/26 13:41:58;;;;;;;4.93;2.75;;;;;;;;;;5068230;27;20118;-75
2021/12/26 13:44:24;;;;;;;5.05;3.85;;;;;;;;;;5095860;27;20046;-75
2021/12/26 13:47:01;;;;;;;5.10;3.55;;;;;;;;;;5090645;27;20371;-76
2021/12/26 13:49:27;;;;;;;7.15;4.05;;;;;;;;;;5087992;27;20393;-76
2021/12/26 13:51:55;;;;;;;6.22;3.60;;;;;;;;;;5104815;27;20497;-76
2021/12/26 13:54:22;;;;;;;4.63;3.15;;;;;;;;;;5101437;27;20146;-76
2021/12/26 13:56:53;;;;;;;5.43;3.28;;;7.40;55.00;;;;;;5090274;27;20042;-76
2021/12/26 13:59:43;;;;;;;5.32;3.30;;;11.10;46.40;;;;;;5107915;27;20614;-76
2021/12/26 14:02:10;;;;;;;5.53;3.53;;;9.80;44.80;;;;;;5070284;28;20055;-76
2021/12/26 14:04:41;;;;;;;5.50;3.88;;;;;;;;;;5100599;28;20499;-76
2021/12/26 14:07:12;;;;;;;4.95;3.35;;;;;;;;;;5091815;27;20050;-76
2021/12/26 14:09:39;;;;;;;8.00;4.45;;;;;;;;;;5120758;27;20044;-76
2021/12/26 14:12:06;;;;;;;9.05;4.35;;;;;;;;;;5094477;28;20036;-87
2021/12/26 14:14:37;;;;;;;5.05;3.55;;;;;;;;;;5084874;28;20154;-87
2021/12/26 14:17:09;;;;;;;8.65;4.65;;;;;;;;;;5106458;27;20039;-87
2021/12/26 14:19:36;;;;;;;4.72;2.95;;;;;;;;;;5102534;27;20036;-87
2021/12/26 14:22:02;;;;;;;3.95;3.53;;;;;;;;;;5101508;27;20503;-87
2021/12/26 14:24:28;;;;;;;8.07;4.28;;;;;;;;;;5087843;28;20119;-88
2021/12/26 14:26:54;;;;;;;6.07;3.72;;;;;;;;;;5077029;28;20408;-76
2021/12/26 14:29:22;;;;;;;7.20;4.03;;;;;;;;;;5100992;27;20035;-86
2021/12/26 14:31:50;;;;;;;5.60;3.33;;;;;;;;;;5045410;27;20071;-83
2021/12/26 14:34:27;;;;;;;6.30;3.92;;;;;;;;;;5083086;28;20123;-84
2021/12/26 14:36:55;;;;;;;6.72;4.15;;;;;;;;;;5095319;28;20067;-85
2021/12/26 14:39:34;;;;;;;4.78;3.25;;;;;;;;;;5097118;28;20044;-83
2021/12/26 14:42:20;;;;;;;7.97;4.28;;;;;;;;;;5089743;28;20448;-83
2021/12/26 14:44:57;;;;;;;6.20;4.25;;;;;;;;;;5083061;28;20126;-83
2021/12/26 14:47:31;;;;;;;6.10;3.50;;;;;;;;;;5067897;28;20104;-82
2021/12/26 14:49:58;;;;;;;7.47;3.90;;;;;;;;;;5098005;28;20078;-83
2021/12/26 14:52:25;;;;;;;5.78;3.45;;;;;;;;;;5084256;28;20043;-82